Flight Track Log - Related Links

Times and Time Zones

All times are in EDT time to prevent confusion due to time zone crossing. See the RPA4907 flight status page for this flight to view local times or setup timezone preferences in your user account.

Time Position Orientation Groundspeed Altitude Reporting Facility
EDT Latitude Longitude Course Direction KTS MPH feet Rate Location/Type
Fri 12:21:51 PM 40.6833 -74.1833 246° West 145 167 500  Level New York TRACON
Fri 12:23:53 PM 40.6147 -74.2431 213° Southwest 175 201 4,900 2,164 Climbing New York Center
Fri 12:24:00 PM 40.5726 -74.5102 245° Southwest  Level FlightAware Approximate
Fri 12:24:54 PM 40.6419 -74.3072 299° West 183 211 7,100  Level New York Center
Fri 12:25:00 PM 40.5310 -74.6268 245° Southwest  Level FlightAware Approximate
Fri 12:25:51 PM 40.6292 -74.3886 258° West 199 229 9,400  Level New York Center
Fri 12:26:00 PM 40.4909 -74.7442 246° West  Level FlightAware Approximate
Fri 12:26:51 PM 40.6064 -74.4531 245° Southwest 217 250 11,300  Level New York Center
Fri 12:27:00 PM 40.4516 -74.8620 246° West  Level FlightAware Approximate
Fri 12:27:52 PM 40.5808 -74.5336 247° West 234 269 12,700  Level New York Center
Fri 12:28:53 PM 40.5489 -74.6194 244° Southwest 241 277 13,900 595 Climbing New York Center
Fri 12:29:53 PM 40.5189 -74.7050 245° Southwest 270 311 13,900  Level New York Center
Fri 12:30:51 PM 40.4778 -74.8144 244° Southwest 299 344 13,900 50 Level New York Center
Fri 12:31:52 PM 40.4408 -74.9186 245° Southwest 309 356 14,000 50 Climbing New York Center
Fri 12:32:52 PM 40.3958 -75.0142 238° Southwest 314 361 14,000  Level New York Center
Fri 12:33:54 PM 40.3389 -75.0894 225° Southwest 327 376 14,000  Level New York Center
Fri 12:34:51 PM 40.2708 -75.1833 226° Southwest 332 382 14,000  Level New York Center
Fri 12:35:52 PM 40.2158 -75.2586 226° Southwest 332 382 14,000  Level New York Center
Fri 12:36:52 PM 40.1453 -75.3544 226° Southwest 332 382 14,000  Level New York Center
Fri 12:37:52 PM 40.0858 -75.4403 228° Southwest 332 382 14,000  Level New York Center
Fri 12:38:53 PM 40.0261 -75.5228 227° Southwest 332 382 14,000  Level New York Center
Fri 12:39:53 PM 39.9644 -75.6053 226° Southwest 332 382 14,000  Level New York Center
Fri 12:40:51 PM 39.9044 -75.6933 228° Southwest 332 382 14,000  Level New York Center
Fri 12:41:51 PM 39.8611 -75.7794 237° Southwest 326 375 14,000 -397 Level New York Center
Fri 12:42:52 PM 39.8067 -75.8836 236° Southwest 319 367 13,200 -957 Descending New York Center
Fri 12:45:18 PM 39.7000 -76.1167 239° Southwest 294 338 10,700 -1,049 Descending Potomac TRACON
Fri 12:46:18 PM 39.6667 -76.2167 247° West 260 299 9,600 -1,000 Descending Potomac TRACON
Fri 12:47:18 PM 39.6500 -76.3000 255° West 268 308 8,700 -1,050 Descending Potomac TRACON
Fri 12:48:18 PM 39.6500 -76.4000 270° West 274 315 7,500 -1,587 Descending Potomac TRACON
Fri 12:49:19 PM 39.6167 -76.4667 237° Southwest 256 295 5,500 -1,240 Descending Potomac TRACON
Fri 12:50:19 PM 39.5500 -76.4833 191° South 245 282 5,000 -200 Descending Potomac TRACON
Fri 12:51:19 PM 39.4833 -76.5000 191° South 252 290 5,100 -347 Climbing Potomac TRACON
Fri 12:52:20 PM 39.4167 -76.5000 180° South 251 289 4,300 -1,043 Descending Potomac TRACON
Fri 12:53:14 PM 39.3500 -76.4833 169° South 247 284 3,100 -650 Descending Potomac TRACON
Fri 12:54:20 PM 39.2833 -76.4833 180° South 240 276 3,000 -48 Descending Potomac TRACON
Fri 12:55:20 PM 39.2167 -76.4833 180° South 237 273 3,000 -316 Level Potomac TRACON
Fri 12:56:14 PM 39.1667 -76.4833 180° South 219 252 2,400 -316 Descending Potomac TRACON
Fri 12:57:14 PM 39.1333 -76.5333 229° Southwest 185 213 2,400  Level Potomac TRACON

Login

Don't have an account? Register now (free) for customized features, flight alerts, and more!